sensor_id;sensor_type;location;lat;lon;timestamp;P1;durP1;ratioP1;P2;durP2;ratioP2
15358;SDS011;7779;49.596;11.070;2024-02-26T00:01:39;7.07;;;3.90;;
15358;SDS011;7779;49.596;11.070;2024-02-26T00:04:05;7.27;;;3.93;;
15358;SDS011;7779;49.596;11.070;2024-02-26T00:06:31;7.47;;;4.23;;
15358;SDS011;7779;49.596;11.070;2024-02-26T00:08:57;7.37;;;3.83;;
15358;SDS011;7779;49.596;11.070;2024-02-26T00:11:23;10.60;;;5.17;;
15358;SDS011;7779;49.596;11.070;2024-02-26T00:13:49;8.23;;;4.67;;
15358;SDS011;7779;49.596;11.070;2024-02-26T00:16:14;8.33;;;4.17;;
15358;SDS011;7779;49.596;11.070;2024-02-26T00:18:40;7.37;;;4.17;;
15358;SDS011;7779;49.596;11.070;2024-02-26T00:21:06;6.83;;;4.27;;
15358;SDS011;7779;49.596;11.070;2024-02-26T00:23:32;4.43;;;3.37;;
15358;SDS011;7779;49.596;11.070;2024-02-26T00:25:57;4.53;;;2.83;;
15358;SDS011;7779;49.596;11.070;2024-02-26T00:28:23;3.93;;;3.10;;
15358;SDS011;7779;49.596;11.070;2024-02-26T00:30:50;4.60;;;3.00;;
15358;SDS011;7779;49.596;11.070;2024-02-26T00:33:20;4.23;;;3.10;;
15358;SDS011;7779;49.596;11.070;2024-02-26T00:35:47;4.53;;;3.00;;
15358;SDS011;7779;49.596;11.070;2024-02-26T00:38:14;4.17;;;2.57;;
15358;SDS011;7779;49.596;11.070;2024-02-26T00:40:39;2.90;;;2.37;;
15358;SDS011;7779;49.596;11.070;2024-02-26T00:43:06;3.80;;;2.80;;
15358;SDS011;7779;49.596;11.070;2024-02-26T00:45:32;4.00;;;3.00;;
15358;SDS011;7779;49.596;11.070;2024-02-26T00:47:58;4.17;;;3.00;;
15358;SDS011;7779;49.596;11.070;2024-02-26T00:50:26;3.47;;;2.90;;
15358;SDS011;7779;49.596;11.070;2024-02-26T00:52:52;5.00;;;2.57;;
15358;SDS011;7779;49.596;11.070;2024-02-26T00:55:18;3.07;;;2.50;;
15358;SDS011;7779;49.596;11.070;2024-02-26T00:57:43;3.40;;;2.83;;
15358;SDS011;7779;49.596;11.070;2024-02-26T01:00:09;3.80;;;2.37;;
15358;SDS011;7779;49.596;11.070;2024-02-26T01:02:36;3.57;;;2.60;;
15358;SDS011;7779;49.596;11.070;2024-02-26T01:05:02;2.97;;;2.50;;
15358;SDS011;7779;49.596;11.070;2024-02-26T01:07:28;2.77;;;2.50;;
15358;SDS011;7779;49.596;11.070;2024-02-26T01:09:53;3.10;;;2.27;;
15358;SDS011;7779;49.596;11.070;2024-02-26T01:12:19;2.47;;;2.17;;
15358;SDS011;7779;49.596;11.070;2024-02-26T01:14:45;3.10;;;2.50;;
15358;SDS011;7779;49.596;11.070;2024-02-26T01:17:10;2.27;;;2.00;;
15358;SDS011;7779;49.596;11.070;2024-02-26T01:19:36;5.90;;;2.50;;
15358;SDS011;7779;49.596;11.070;2024-02-26T01:22:02;2.50;;;1.70;;
15358;SDS011;7779;49.596;11.070;2024-02-26T01:24:27;3.07;;;2.17;;
15358;SDS011;7779;49.596;11.070;2024-02-26T01:26:54;3.40;;;2.30;;
15358;SDS011;7779;49.596;11.070;2024-02-26T01:29:20;3.23;;;2.13;;
15358;SDS011;7779;49.596;11.070;2024-02-26T01:31:45;2.73;;;2.23;;
15358;SDS011;7779;49.596;11.070;2024-02-26T01:34:11;3.47;;;2.10;;
15358;SDS011;7779;49.596;11.070;2024-02-26T01:36:37;2.20;;;1.90;;
15358;SDS011;7779;49.596;11.070;2024-02-26T01:39:02;2.80;;;1.67;;
15358;SDS011;7779;49.596;11.070;2024-02-26T01:41:28;3.20;;;2.23;;
15358;SDS011;7779;49.596;11.070;2024-02-26T01:43:54;2.57;;;1.90;;
15358;SDS011;7779;49.596;11.070;2024-02-26T01:46:20;2.23;;;2.00;;
15358;SDS011;7779;49.596;11.070;2024-02-26T01:48:46;3.07;;;2.57;;
15358;SDS011;7779;49.596;11.070;2024-02-26T01:51:15;2.50;;;2.20;;
15358;SDS011;7779;49.596;11.070;2024-02-26T01:53:42;3.00;;;2.37;;
15358;SDS011;7779;49.596;11.070;2024-02-26T01:56:08;2.50;;;1.83;;
15358;SDS011;7779;49.596;11.070;2024-02-26T01:58:34;2.90;;;1.90;;
15358;SDS011;7779;49.596;11.070;2024-02-26T02:01:01;2.63;;;1.90;;
15358;SDS011;7779;49.596;11.070;2024-02-26T02:03:28;2.87;;;2.40;;
15358;SDS011;7779;49.596;11.070;2024-02-26T02:05:55;2.00;;;1.73;;
15358;SDS011;7779;49.596;11.070;2024-02-26T02:08:21;3.13;;;2.10;;
15358;SDS011;7779;49.596;11.070;2024-02-26T02:10:49;2.23;;;1.90;;
15358;SDS011;7779;49.596;11.070;2024-02-26T02:13:15;2.40;;;1.90;;
15358;SDS011;7779;49.596;11.070;2024-02-26T02:15:41;3.20;;;2.00;;
15358;SDS011;7779;49.596;11.070;2024-02-26T02:18:07;3.23;;;2.10;;
15358;SDS011;7779;49.596;11.070;2024-02-26T02:20:33;2.30;;;1.87;;
15358;SDS011;7779;49.596;11.070;2024-02-26T02:22:59;2.37;;;1.90;;
15358;SDS011;7779;49.596;11.070;2024-02-26T02:25:26;1.63;;;1.50;;
15358;SDS011;7779;49.596;11.070;2024-02-26T02:27:53;3.17;;;1.97;;
15358;SDS011;7779;49.596;11.070;2024-02-26T02:30:23;2.50;;;2.00;;
15358;SDS011;7779;49.596;11.070;2024-02-26T02:32:54;2.00;;;1.80;;
15358;SDS011;7779;49.596;11.070;2024-02-26T02:35:23;2.47;;;2.20;;
15358;SDS011;7779;49.596;11.070;2024-02-26T02:37:51;2.47;;;1.90;;
15358;SDS011;7779;49.596;11.070;2024-02-26T02:40:18;2.63;;;1.87;;
15358;SDS011;7779;49.596;11.070;2024-02-26T02:42:44;2.83;;;1.90;;
15358;SDS011;7779;49.596;11.070;2024-02-26T02:45:09;2.50;;;1.80;;
15358;SDS011;7779;49.596;11.070;2024-02-26T02:47:36;2.77;;;1.80;;
15358;SDS011;7779;49.596;11.070;2024-02-26T02:50:02;2.87;;;1.90;;
15358;SDS011;7779;49.596;11.070;2024-02-26T02:52:29;2.67;;;1.90;;
15358;SDS011;7779;49.596;11.070;2024-02-26T02:54:54;2.90;;;2.27;;
15358;SDS011;7779;49.596;11.070;2024-02-26T02:57:20;2.90;;;2.30;;
15358;SDS011;7779;49.596;11.070;2024-02-26T02:59:46;2.87;;;2.10;;
15358;SDS011;7779;49.596;11.070;2024-02-26T03:02:11;2.63;;;2.03;;
15358;SDS011;7779;49.596;11.070;2024-02-26T03:04:37;3.03;;;1.90;;
15358;SDS011;7779;49.596;11.070;2024-02-26T03:07:03;3.30;;;2.13;;
15358;SDS011;7779;49.596;11.070;2024-02-26T03:09:29;3.27;;;2.17;;
15358;SDS011;7779;49.596;11.070;2024-02-26T03:11:54;3.10;;;2.27;;
15358;SDS011;7779;49.596;11.070;2024-02-26T03:14:20;3.10;;;2.40;;
15358;SDS011;7779;49.596;11.070;2024-02-26T03:16:46;3.47;;;2.20;;
15358;SDS011;7779;49.596;11.070;2024-02-26T03:19:14;2.73;;;2.00;;
15358;SDS011;7779;49.596;11.070;2024-02-26T03:21:43;3.33;;;2.10;;
15358;SDS011;7779;49.596;11.070;2024-02-26T03:24:09;2.20;;;1.90;;
15358;SDS011;7779;49.596;11.070;2024-02-26T03:26:35;3.00;;;1.70;;
15358;SDS011;7779;49.596;11.070;2024-02-26T03:29:02;3.33;;;2.10;;
15358;SDS011;7779;49.596;11.070;2024-02-26T03:31:28;2.63;;;1.80;;
15358;SDS011;7779;49.596;11.070;2024-02-26T03:33:53;2.73;;;2.00;;
15358;SDS011;7779;49.596;11.070;2024-02-26T03:36:19;3.20;;;1.97;;
15358;SDS011;7779;49.596;11.070;2024-02-26T03:38:46;2.23;;;1.73;;
15358;SDS011;7779;49.596;11.070;2024-02-26T03:41:13;2.17;;;1.67;;
15358;SDS011;7779;49.596;11.070;2024-02-26T03:43:39;4.20;;;1.90;;
15358;SDS011;7779;49.596;11.070;2024-02-26T03:46:08;2.40;;;2.00;;
15358;SDS011;7779;49.596;11.070;2024-02-26T03:48:34;3.17;;;2.27;;
15358;SDS011;7779;49.596;11.070;2024-02-26T03:51:00;2.90;;;2.20;;
15358;SDS011;7779;49.596;11.070;2024-02-26T03:53:26;3.13;;;1.90;;
15358;SDS011;7779;49.596;11.070;2024-02-26T03:55:51;2.27;;;1.63;;
15358;SDS011;7779;49.596;11.070;2024-02-26T03:58:20;2.63;;;1.90;;
15358;SDS011;7779;49.596;11.070;2024-02-26T04:00:46;2.60;;;2.03;;
15358;SDS011;7779;49.596;11.070;2024-02-26T04:03:13;1.83;;;1.70;;
15358;SDS011;7779;49.596;11.070;2024-02-26T04:05:39;2.60;;;2.10;;
15358;SDS011;7779;49.596;11.070;2024-02-26T04:08:05;2.47;;;2.00;;
15358;SDS011;7779;49.596;11.070;2024-02-26T04:10:32;2.13;;;1.67;;
15358;SDS011;7779;49.596;11.070;2024-02-26T04:13:04;3.47;;;1.70;;
15358;SDS011;7779;49.596;11.070;2024-02-26T04:15:30;2.97;;;2.10;;
15358;SDS011;7779;49.596;11.070;2024-02-26T04:17:57;2.13;;;1.83;;
15358;SDS011;7779;49.596;11.070;2024-02-26T04:20:23;3.10;;;1.80;;
15358;SDS011;7779;49.596;11.070;2024-02-26T04:22:49;2.80;;;2.10;;
15358;SDS011;7779;49.596;11.070;2024-02-26T04:25:14;2.27;;;1.67;;
15358;SDS011;7779;49.596;11.070;2024-02-26T04:27:40;2.40;;;1.80;;
15358;SDS011;7779;49.596;11.070;2024-02-26T04:30:06;2.63;;;1.77;;
15358;SDS011;7779;49.596;11.070;2024-02-26T04:32:33;2.33;;;2.03;;
15358;SDS011;7779;49.596;11.070;2024-02-26T04:34:59;2.40;;;2.20;;
15358;SDS011;7779;49.596;11.070;2024-02-26T04:37:27;2.37;;;2.10;;
15358;SDS011;7779;49.596;11.070;2024-02-26T04:39:57;2.87;;;2.20;;
15358;SDS011;7779;49.596;11.070;2024-02-26T04:42:24;1.97;;;1.77;;
15358;SDS011;7779;49.596;11.070;2024-02-26T04:44:50;2.73;;;1.90;;
15358;SDS011;7779;49.596;11.070;2024-02-26T04:47:15;2.93;;;2.23;;
15358;SDS011;7779;49.596;11.070;2024-02-26T04:49:41;2.20;;;2.00;;
15358;SDS011;7779;49.596;11.070;2024-02-26T04:52:07;2.67;;;2.10;;
15358;SDS011;7779;49.596;11.070;2024-02-26T04:54:33;2.30;;;1.90;;
15358;SDS011;7779;49.596;11.070;2024-02-26T04:56:58;2.70;;;1.70;;
15358;SDS011;7779;49.596;11.070;2024-02-26T04:59:24;1.97;;;1.60;;
15358;SDS011;7779;49.596;11.070;2024-02-26T05:01:50;2.13;;;1.90;;
15358;SDS011;7779;49.596;11.070;2024-02-26T05:04:17;3.37;;;1.90;;
15358;SDS011;7779;49.596;11.070;2024-02-26T05:06:43;2.20;;;1.93;;
15358;SDS011;7779;49.596;11.070;2024-02-26T05:09:09;2.57;;;1.80;;
15358;SDS011;7779;49.596;11.070;2024-02-26T05:11:35;2.33;;;1.60;;
15358;SDS011;7779;49.596;11.070;2024-02-26T05:14:01;2.67;;;1.97;;
15358;SDS011;7779;49.596;11.070;2024-02-26T05:16:27;3.33;;;2.07;;
15358;SDS011;7779;49.596;11.070;2024-02-26T05:18:53;2.37;;;1.73;;
15358;SDS011;7779;49.596;11.070;2024-02-26T05:21:18;2.13;;;1.93;;
15358;SDS011;7779;49.596;11.070;2024-02-26T05:23:44;3.03;;;2.10;;
15358;SDS011;7779;49.596;11.070;2024-02-26T05:26:10;2.37;;;2.03;;
15358;SDS011;7779;49.596;11.070;2024-02-26T05:28:36;2.50;;;2.10;;
15358;SDS011;7779;49.596;11.070;2024-02-26T05:31:04;2.80;;;2.40;;
15358;SDS011;7779;49.596;11.070;2024-02-26T05:33:30;2.50;;;1.93;;
15358;SDS011;7779;49.596;11.070;2024-02-26T05:35:56;2.87;;;1.87;;
15358;SDS011;7779;49.596;11.070;2024-02-26T05:38:22;2.40;;;1.90;;
15358;SDS011;7779;49.596;11.070;2024-02-26T05:40:47;2.00;;;1.70;;
15358;SDS011;7779;49.596;11.070;2024-02-26T05:43:13;3.33;;;1.70;;
15358;SDS011;7779;49.596;11.070;2024-02-26T05:45:42;2.73;;;1.90;;
15358;SDS011;7779;49.596;11.070;2024-02-26T05:48:08;2.27;;;1.57;;
15358;SDS011;7779;49.596;11.070;2024-02-26T05:50:33;3.40;;;1.80;;
15358;SDS011;7779;49.596;11.070;2024-02-26T05:52:59;2.27;;;1.67;;
15358;SDS011;7779;49.596;11.070;2024-02-26T05:55:25;2.30;;;1.70;;
15358;SDS011;7779;49.596;11.070;2024-02-26T05:57:52;2.10;;;1.90;;
15358;SDS011;7779;49.596;11.070;2024-02-26T06:00:18;2.20;;;1.47;;
15358;SDS011;7779;49.596;11.070;2024-02-26T06:02:44;2.10;;;1.83;;
15358;SDS011;7779;49.596;11.070;2024-02-26T06:05:10;2.00;;;1.80;;
15358;SDS011;7779;49.596;11.070;2024-02-26T06:07:35;2.53;;;1.83;;
15358;SDS011;7779;49.596;11.070;2024-02-26T06:10:01;2.50;;;1.80;;
15358;SDS011;7779;49.596;11.070;2024-02-26T06:12:29;2.63;;;1.70;;
15358;SDS011;7779;49.596;11.070;2024-02-26T06:14:56;2.23;;;1.60;;
15358;SDS011;7779;49.596;11.070;2024-02-26T06:17:22;2.23;;;1.57;;
15358;SDS011;7779;49.596;11.070;2024-02-26T06:19:48;2.90;;;1.70;;
15358;SDS011;7779;49.596;11.070;2024-02-26T06:22:13;1.80;;;1.63;;
15358;SDS011;7779;49.596;11.070;2024-02-26T06:24:39;1.67;;;1.50;;
15358;SDS011;7779;49.596;11.070;2024-02-26T06:27:05;2.60;;;1.63;;
15358;SDS011;7779;49.596;11.070;2024-02-26T06:29:30;3.93;;;2.00;;
15358;SDS011;7779;49.596;11.070;2024-02-26T06:31:56;2.07;;;1.60;;
15358;SDS011;7779;49.596;11.070;2024-02-26T06:34:22;1.87;;;1.53;;
15358;SDS011;7779;49.596;11.070;2024-02-26T06:36:47;1.60;;;1.30;;
15358;SDS011;7779;49.596;11.070;2024-02-26T06:39:13;2.70;;;1.70;;
15358;SDS011;7779;49.596;11.070;2024-02-26T06:41:41;1.70;;;1.50;;
15358;SDS011;7779;49.596;11.070;2024-02-26T06:44:06;2.20;;;1.40;;
15358;SDS011;7779;49.596;11.070;2024-02-26T06:46:32;2.30;;;1.73;;
15358;SDS011;7779;49.596;11.070;2024-02-26T06:48:58;2.27;;;1.90;;
15358;SDS011;7779;49.596;11.070;2024-02-26T06:51:24;2.77;;;2.00;;
15358;SDS011;7779;49.596;11.070;2024-02-26T06:53:50;2.80;;;2.00;;
15358;SDS011;7779;49.596;11.070;2024-02-26T06:56:15;2.10;;;1.90;;
15358;SDS011;7779;49.596;11.070;2024-02-26T06:58:41;2.70;;;1.83;;
15358;SDS011;7779;49.596;11.070;2024-02-26T07:01:07;2.60;;;1.80;;
15358;SDS011;7779;49.596;11.070;2024-02-26T07:03:35;4.47;;;2.00;;
15358;SDS011;7779;49.596;11.070;2024-02-26T07:06:01;1.97;;;1.77;;
15358;SDS011;7779;49.596;11.070;2024-02-26T07:08:27;2.90;;;1.70;;
15358;SDS011;7779;49.596;11.070;2024-02-26T07:10:53;3.20;;;2.10;;
15358;SDS011;7779;49.596;11.070;2024-02-26T07:13:19;3.23;;;2.40;;
15358;SDS011;7779;49.596;11.070;2024-02-26T07:15:45;3.03;;;2.17;;
15358;SDS011;7779;49.596;11.070;2024-02-26T07:18:11;3.90;;;2.23;;
15358;SDS011;7779;49.596;11.070;2024-02-26T07:20:37;3.03;;;1.97;;
15358;SDS011;7779;49.596;11.070;2024-02-26T07:23:03;2.40;;;1.83;;
15358;SDS011;7779;49.596;11.070;2024-02-26T07:25:29;2.30;;;1.83;;
15358;SDS011;7779;49.596;11.070;2024-02-26T07:27:54;3.07;;;2.40;;
15358;SDS011;7779;49.596;11.070;2024-02-26T07:30:20;2.57;;;1.70;;
15358;SDS011;7779;49.596;11.070;2024-02-26T07:32:46;2.33;;;1.90;;
15358;SDS011;7779;49.596;11.070;2024-02-26T07:35:11;7.73;;;1.80;;
15358;SDS011;7779;49.596;11.070;2024-02-26T07:37:37;2.20;;;1.83;;
15358;SDS011;7779;49.596;11.070;2024-02-26T07:40:03;5.13;;;3.77;;
15358;SDS011;7779;49.596;11.070;2024-02-26T07:42:30;4.00;;;2.80;;
15358;SDS011;7779;49.596;11.070;2024-02-26T07:44:56;3.87;;;2.50;;
15358;SDS011;7779;49.596;11.070;2024-02-26T07:47:22;2.20;;;2.00;;
15358;SDS011;7779;49.596;11.070;2024-02-26T07:49:48;2.50;;;2.07;;
15358;SDS011;7779;49.596;11.070;2024-02-26T07:52:13;2.63;;;2.17;;
15358;SDS011;7779;49.596;11.070;2024-02-26T07:54:39;2.77;;;2.17;;
15358;SDS011;7779;49.596;11.070;2024-02-26T07:57:05;2.67;;;1.97;;
15358;SDS011;7779;49.596;11.070;2024-02-26T07:59:31;2.27;;;1.87;;
15358;SDS011;7779;49.596;11.070;2024-02-26T08:01:57;3.13;;;2.20;;
15358;SDS011;7779;49.596;11.070;2024-02-26T08:04:22;3.03;;;2.30;;
15358;SDS011;7779;49.596;11.070;2024-02-26T08:06:48;3.17;;;2.43;;
15358;SDS011;7779;49.596;11.070;2024-02-26T08:09:14;3.70;;;2.70;;
15358;SDS011;7779;49.596;11.070;2024-02-26T08:11:40;3.33;;;2.70;;
15358;SDS011;7779;49.596;11.070;2024-02-26T08:14:05;2.83;;;2.50;;
15358;SDS011;7779;49.596;11.070;2024-02-26T08:16:31;3.43;;;2.17;;
15358;SDS011;7779;49.596;11.070;2024-02-26T08:18:57;3.07;;;2.20;;
15358;SDS011;7779;49.596;11.070;2024-02-26T08:21:22;2.83;;;2.30;;
15358;SDS011;7779;49.596;11.070;2024-02-26T08:23:48;2.80;;;2.40;;
15358;SDS011;7779;49.596;11.070;2024-02-26T08:26:14;2.90;;;2.37;;
15358;SDS011;7779;49.596;11.070;2024-02-26T08:28:40;3.03;;;2.10;;
15358;SDS011;7779;49.596;11.070;2024-02-26T08:31:06;3.03;;;2.40;;
15358;SDS011;7779;49.596;11.070;2024-02-26T08:33:32;3.00;;;2.33;;
15358;SDS011;7779;49.596;11.070;2024-02-26T08:36:02;2.40;;;2.20;;
15358;SDS011;7779;49.596;11.070;2024-02-26T08:38:30;3.03;;;2.47;;
15358;SDS011;7779;49.596;11.070;2024-02-26T08:40:55;3.40;;;2.40;;
15358;SDS011;7779;49.596;11.070;2024-02-26T08:43:21;2.67;;;2.20;;
15358;SDS011;7779;49.596;11.070;2024-02-26T08:45:47;2.37;;;2.10;;
15358;SDS011;7779;49.596;11.070;2024-02-26T08:48:12;2.40;;;1.90;;
15358;SDS011;7779;49.596;11.070;2024-02-26T08:50:38;2.67;;;2.27;;
15358;SDS011;7779;49.596;11.070;2024-02-26T08:53:04;3.40;;;2.30;;
15358;SDS011;7779;49.596;11.070;2024-02-26T08:55:30;2.93;;;2.20;;
15358;SDS011;7779;49.596;11.070;2024-02-26T08:57:56;3.30;;;2.00;;
15358;SDS011;7779;49.596;11.070;2024-02-26T09:00:22;2.37;;;2.00;;
15358;SDS011;7779;49.596;11.070;2024-02-26T09:02:47;4.00;;;2.83;;
15358;SDS011;7779;49.596;11.070;2024-02-26T09:05:14;3.87;;;2.33;;
15358;SDS011;7779;49.596;11.070;2024-02-26T09:07:40;3.40;;;2.80;;
15358;SDS011;7779;49.596;11.070;2024-02-26T09:10:06;3.23;;;2.37;;
15358;SDS011;7779;49.596;11.070;2024-02-26T09:12:36;4.13;;;2.77;;
15358;SDS011;7779;49.596;11.070;2024-02-26T09:15:03;3.43;;;2.40;;
15358;SDS011;7779;49.596;11.070;2024-02-26T09:17:29;3.20;;;2.53;;
15358;SDS011;7779;49.596;11.070;2024-02-26T09:19:55;4.27;;;2.70;;
15358;SDS011;7779;49.596;11.070;2024-02-26T09:22:20;4.63;;;2.90;;
15358;SDS011;7779;49.596;11.070;2024-02-26T09:24:46;4.33;;;3.10;;
15358;SDS011;7779;49.596;11.070;2024-02-26T09:27:12;3.33;;;2.70;;
15358;SDS011;7779;49.596;11.070;2024-02-26T09:29:38;3.50;;;2.63;;
15358;SDS011;7779;49.596;11.070;2024-02-26T09:32:03;3.30;;;2.33;;
15358;SDS011;7779;49.596;11.070;2024-02-26T09:34:30;3.30;;;2.70;;
15358;SDS011;7779;49.596;11.070;2024-02-26T09:36:55;4.00;;;3.00;;
15358;SDS011;7779;49.596;11.070;2024-02-26T09:39:21;3.50;;;2.57;;
15358;SDS011;7779;49.596;11.070;2024-02-26T09:41:47;3.83;;;3.10;;
15358;SDS011;7779;49.596;11.070;2024-02-26T09:44:18;3.00;;;2.53;;
15358;SDS011;7779;49.596;11.070;2024-02-26T09:46:48;3.13;;;2.57;;
15358;SDS011;7779;49.596;11.070;2024-02-26T09:49:17;3.10;;;2.50;;
15358;SDS011;7779;49.596;11.070;2024-02-26T09:51:45;3.10;;;2.77;;
15358;SDS011;7779;49.596;11.070;2024-02-26T09:54:14;2.60;;;2.30;;
15358;SDS011;7779;49.596;11.070;2024-02-26T09:56:41;3.30;;;2.37;;
15358;SDS011;7779;49.596;11.070;2024-02-26T09:59:13;2.83;;;2.40;;
15358;SDS011;7779;49.596;11.070;2024-02-26T10:01:42;4.17;;;2.50;;
15358;SDS011;7779;49.596;11.070;2024-02-26T10:04:11;3.10;;;2.53;;
15358;SDS011;7779;49.596;11.070;2024-02-26T10:06:38;2.80;;;2.37;;
15358;SDS011;7779;49.596;11.070;2024-02-26T10:09:05;2.57;;;2.30;;
15358;SDS011;7779;49.596;11.070;2024-02-26T10:11:34;2.80;;;2.53;;
15358;SDS011;7779;49.596;11.070;2024-02-26T10:14:02;3.13;;;2.50;;
15358;SDS011;7779;49.596;11.070;2024-02-26T10:16:28;4.03;;;2.47;;
15358;SDS011;7779;49.596;11.070;2024-02-26T10:18:54;4.47;;;2.60;;
15358;SDS011;7779;49.596;11.070;2024-02-26T10:21:20;2.77;;;2.50;;
15358;SDS011;7779;49.596;11.070;2024-02-26T10:23:48;3.17;;;1.97;;
15358;SDS011;7779;49.596;11.070;2024-02-26T10:26:15;2.53;;;2.00;;
15358;SDS011;7779;49.596;11.070;2024-02-26T10:28:45;3.33;;;2.40;;
15358;SDS011;7779;49.596;11.070;2024-02-26T10:31:11;3.57;;;2.27;;
15358;SDS011;7779;49.596;11.070;2024-02-26T10:33:39;3.03;;;2.47;;
15358;SDS011;7779;49.596;11.070;2024-02-26T10:36:07;2.90;;;2.53;;
15358;SDS011;7779;49.596;11.070;2024-02-26T10:38:34;4.63;;;2.50;;
15358;SDS011;7779;49.596;11.070;2024-02-26T10:41:04;2.87;;;2.50;;
15358;SDS011;7779;49.596;11.070;2024-02-26T10:43:31;3.00;;;2.40;;
15358;SDS011;7779;49.596;11.070;2024-02-26T10:45:57;3.27;;;2.63;;
15358;SDS011;7779;49.596;11.070;2024-02-26T10:48:23;2.60;;;2.17;;
15358;SDS011;7779;49.596;11.070;2024-02-26T10:50:49;2.53;;;2.17;;
15358;SDS011;7779;49.596;11.070;2024-02-26T10:53:22;2.53;;;2.00;;
15358;SDS011;7779;49.596;11.070;2024-02-26T10:55:55;2.43;;;2.20;;
15358;SDS011;7779;49.596;11.070;2024-02-26T10:58:26;2.90;;;1.93;;
15358;SDS011;7779;49.596;11.070;2024-02-26T11:00:54;2.40;;;2.20;;
15358;SDS011;7779;49.596;11.070;2024-02-26T11:03:22;2.70;;;2.30;;
15358;SDS011;7779;49.596;11.070;2024-02-26T11:05:53;3.40;;;2.70;;
15358;SDS011;7779;49.596;11.070;2024-02-26T11:08:21;2.77;;;2.30;;
15358;SDS011;7779;49.596;11.070;2024-02-26T11:10:50;2.40;;;2.10;;
15358;SDS011;7779;49.596;11.070;2024-02-26T11:13:19;2.70;;;1.97;;
15358;SDS011;7779;49.596;11.070;2024-02-26T11:15:46;3.17;;;2.33;;
15358;SDS011;7779;49.596;11.070;2024-02-26T11:18:14;2.47;;;2.07;;
15358;SDS011;7779;49.596;11.070;2024-02-26T11:20:41;4.13;;;2.30;;
15358;SDS011;7779;49.596;11.070;2024-02-26T11:23:09;2.30;;;2.10;;
15358;SDS011;7779;49.596;11.070;2024-02-26T11:25:35;2.27;;;2.07;;
15358;SDS011;7779;49.596;11.070;2024-02-26T11:28:03;2.20;;;1.70;;
15358;SDS011;7779;49.596;11.070;2024-02-26T11:30:38;2.40;;;2.00;;
15358;SDS011;7779;49.596;11.070;2024-02-26T11:33:10;2.73;;;1.97;;
15358;SDS011;7779;49.596;11.070;2024-02-26T11:35:37;1.93;;;1.67;;
15358;SDS011;7779;49.596;11.070;2024-02-26T11:38:04;2.47;;;1.70;;
15358;SDS011;7779;49.596;11.070;2024-02-26T11:40:31;2.57;;;1.90;;
15358;SDS011;7779;49.596;11.070;2024-02-26T11:43:04;2.40;;;1.80;;
15358;SDS011;7779;49.596;11.070;2024-02-26T11:48:10;2.00;;;1.53;;
15358;SDS011;7779;49.596;11.070;2024-02-26T11:51:02;2.10;;;1.83;;
15358;SDS011;7779;49.596;11.070;2024-02-26T11:53:30;2.63;;;2.07;;
15358;SDS011;7779;49.596;11.070;2024-02-26T11:59:03;3.37;;;1.90;;
15358;SDS011;7779;49.596;11.070;2024-02-26T12:04:13;2.53;;;2.07;;
15358;SDS011;7779;49.596;11.070;2024-02-26T12:07:00;2.40;;;1.90;;
15358;SDS011;7779;49.596;11.070;2024-02-26T12:11:58;2.27;;;1.97;;
15358;SDS011;7779;49.596;11.070;2024-02-26T12:14:26;2.63;;;1.83;;
15358;SDS011;7779;49.596;11.070;2024-02-26T12:16:52;2.60;;;2.00;;
15358;SDS011;7779;49.596;11.070;2024-02-26T12:19:20;4.07;;;2.00;;
15358;SDS011;7779;49.596;11.070;2024-02-26T12:21:50;1.87;;;1.63;;
15358;SDS011;7779;49.596;11.070;2024-02-26T12:24:20;2.20;;;2.00;;
15358;SDS011;7779;49.596;11.070;2024-02-26T12:26:46;1.97;;;1.70;;
15358;SDS011;7779;49.596;11.070;2024-02-26T12:29:12;1.80;;;1.70;;
15358;SDS011;7779;49.596;11.070;2024-02-26T12:31:39;1.93;;;1.60;;
15358;SDS011;7779;49.596;11.070;2024-02-26T12:34:06;2.10;;;1.87;;
15358;SDS011;7779;49.596;11.070;2024-02-26T12:36:34;1.90;;;1.70;;
15358;SDS011;7779;49.596;11.070;2024-02-26T12:39:04;2.73;;;1.77;;
15358;SDS011;7779;49.596;11.070;2024-02-26T12:41:34;1.93;;;1.80;;
15358;SDS011;7779;49.596;11.070;2024-02-26T12:44:00;3.10;;;1.80;;
15358;SDS011;7779;49.596;11.070;2024-02-26T12:46:27;2.90;;;1.90;;
15358;SDS011;7779;49.596;11.070;2024-02-26T12:48:54;3.73;;;1.83;;
15358;SDS011;7779;49.596;11.070;2024-02-26T12:51:23;1.77;;;1.60;;
15358;SDS011;7779;49.596;11.070;2024-02-26T12:53:50;2.20;;;1.80;;
15358;SDS011;7779;49.596;11.070;2024-02-26T12:56:17;1.80;;;1.63;;
15358;SDS011;7779;49.596;11.070;2024-02-26T12:58:44;3.40;;;2.10;;
15358;SDS011;7779;49.596;11.070;2024-02-26T13:01:13;2.20;;;1.80;;
15358;SDS011;7779;49.596;11.070;2024-02-26T13:03:42;2.67;;;1.97;;
15358;SDS011;7779;49.596;11.070;2024-02-26T13:06:09;2.33;;;1.60;;
15358;SDS011;7779;49.596;11.070;2024-02-26T13:08:35;2.00;;;1.50;;
15358;SDS011;7779;49.596;11.070;2024-02-26T13:11:01;2.20;;;1.40;;
15358;SDS011;7779;49.596;11.070;2024-02-26T13:13:27;1.77;;;1.30;;
15358;SDS011;7779;49.596;11.070;2024-02-26T13:16:07;2.67;;;1.70;;
15358;SDS011;7779;49.596;11.070;2024-02-26T13:18:39;1.40;;;1.13;;
15358;SDS011;7779;49.596;11.070;2024-02-26T13:21:08;1.60;;;1.50;;
15358;SDS011;7779;49.596;11.070;2024-02-26T13:23:40;1.60;;;1.40;;
15358;SDS011;7779;49.596;11.070;2024-02-26T13:26:07;1.87;;;1.50;;
15358;SDS011;7779;49.596;11.070;2024-02-26T13:28:37;1.60;;;1.30;;
15358;SDS011;7779;49.596;11.070;2024-02-26T13:31:03;1.80;;;1.40;;
15358;SDS011;7779;49.596;11.070;2024-02-26T13:33:32;4.13;;;2.87;;
15358;SDS011;7779;49.596;11.070;2024-02-26T13:35:59;2.30;;;1.97;;
15358;SDS011;7779;49.596;11.070;2024-02-26T13:38:26;1.87;;;1.70;;
15358;SDS011;7779;49.596;11.070;2024-02-26T13:40:55;2.17;;;1.30;;
15358;SDS011;7779;49.596;11.070;2024-02-26T13:43:21;1.77;;;1.40;;
15358;SDS011;7779;49.596;11.070;2024-02-26T13:45:47;2.50;;;1.87;;
15358;SDS011;7779;49.596;11.070;2024-02-26T13:48:13;1.73;;;1.57;;
15358;SDS011;7779;49.596;11.070;2024-02-26T13:50:39;1.50;;;1.40;;
15358;SDS011;7779;49.596;11.070;2024-02-26T13:53:10;1.10;;;1.00;;
15358;SDS011;7779;49.596;11.070;2024-02-26T13:55:37;1.83;;;1.63;;
15358;SDS011;7779;49.596;11.070;2024-02-26T13:58:05;2.83;;;1.60;;
15358;SDS011;7779;49.596;11.070;2024-02-26T14:00:32;1.67;;;1.30;;
15358;SDS011;7779;49.596;11.070;2024-02-26T14:02:59;1.47;;;1.37;;
15358;SDS011;7779;49.596;11.070;2024-02-26T14:05:25;1.43;;;1.07;;
15358;SDS011;7779;49.596;11.070;2024-02-26T14:07:52;2.97;;;1.23;;
15358;SDS011;7779;49.596;11.070;2024-02-26T14:10:18;2.57;;;1.20;;
15358;SDS011;7779;49.596;11.070;2024-02-26T14:12:45;1.30;;;1.10;;
15358;SDS011;7779;49.596;11.070;2024-02-26T14:15:11;1.20;;;1.10;;
15358;SDS011;7779;49.596;11.070;2024-02-26T14:17:36;2.30;;;1.20;;
15358;SDS011;7779;49.596;11.070;2024-02-26T14:20:02;1.77;;;1.20;;
15358;SDS011;7779;49.596;11.070;2024-02-26T14:22:29;1.37;;;1.23;;
15358;SDS011;7779;49.596;11.070;2024-02-26T14:24:57;1.10;;;1.00;;
15358;SDS011;7779;49.596;11.070;2024-02-26T14:27:24;1.30;;;1.20;;
15358;SDS011;7779;49.596;11.070;2024-02-26T14:29:50;1.30;;;1.20;;
15358;SDS011;7779;49.596;11.070;2024-02-26T14:32:16;2.30;;;1.30;;
15358;SDS011;7779;49.596;11.070;2024-02-26T14:34:42;1.50;;;1.23;;
15358;SDS011;7779;49.596;11.070;2024-02-26T14:37:08;1.40;;;1.30;;
15358;SDS011;7779;49.596;11.070;2024-02-26T14:39:34;1.37;;;1.27;;
15358;SDS011;7779;49.596;11.070;2024-02-26T14:42:00;1.60;;;1.30;;
15358;SDS011;7779;49.596;11.070;2024-02-26T14:44:26;1.10;;;0.87;;
15358;SDS011;7779;49.596;11.070;2024-02-26T14:46:52;1.50;;;1.20;;
15358;SDS011;7779;49.596;11.070;2024-02-26T14:49:18;1.50;;;1.40;;
15358;SDS011;7779;49.596;11.070;2024-02-26T14:51:44;1.50;;;1.23;;
15358;SDS011;7779;49.596;11.070;2024-02-26T14:54:11;1.50;;;1.40;;
15358;SDS011;7779;49.596;11.070;2024-02-26T14:56:38;1.60;;;1.30;;